• Join FlightAware (Why Join?)
  • Login
  • US Flag 
01:41PM EDT


 

Airport Tracker/Info


-or-


 

Live Flight TrackerFlight Track Log ✈ NSH880 ✈ 27-Oct-2013 ✈ KMSO - KPWK

Flight Track Log - Related Links

Times and Time Zones

All times are in EDT time to prevent confusion due to time zone crossing. See the NSH880 flight status page for this flight to view local times or setup timezone preferences in your user account.

Time Position Orientation Groundspeed Altitude Reporting Facility
EDT Latitude Longitude Course Direction KTS MPH feet Rate Location/Type
04:47PM 46.9317 -114.1236 18° North 200 230 4,500  Level Salt Lake Center
04:48PM 46.9711 -114.1053 18° North 223 257 7,900 3,240 Climbing Salt Lake Center
04:49PM 46.9567 -114.0192 104° East 216 249 11,200 2,100 Climbing Salt Lake Center
04:50PM 46.9369 -113.8997 104° East 306 352 12,300 1,920 Climbing Salt Lake Center
04:51PM 46.9119 -113.7433 103° East 366 421 15,200 2,700 Climbing Salt Lake Center
04:52PM 46.8881 -113.5972 103° East 371 427 18,000 2,400 Climbing Salt Lake Center
04:53PM 46.8642 -113.4539 104° East 385 443 20,200 2,280 Climbing Salt Lake Center
04:54PM 46.8372 -113.2931 104° East 407 468 22,700 2,400 Climbing Salt Lake Center
04:55PM 46.8117 -113.1347 103° East 404 465 25,200 1,860 Climbing Salt Lake Center
04:56PM 46.7836 -112.9694 104° East 421 484 26,600 1,560 Climbing Salt Lake Center
04:57PM 46.7489 -112.7642 104° East 444 511 28,500 1,860 Climbing Salt Lake Center
04:58PM 46.7192 -112.5900 104° East 445 512 30,500 1,560 Climbing Salt Lake Center
04:59PM 46.6878 -112.4161 105° East 446 513 31,800 1,140 Climbing Salt Lake Center
05:00PM 46.6569 -112.2378 104° East 455 524 32,900 540 Climbing Salt Lake Center
05:01PM 46.6244 -112.0544 104° East 468 539 33,000 720 Climbing Salt Lake Center
05:02PM 46.5992 -111.8664 101° East 475 547 34,500 1,560 Climbing Salt Lake Center
05:03PM 46.5861 -111.6442 95° East 465 535 36,300 1,020 Climbing Salt Lake Center
05:04PM 46.5714 -111.4606 97° East 461 531 36,700 240 Climbing Salt Lake Center
05:05PM 46.5583 -111.2728 96° East 468 539 36,900 60 Climbing Salt Lake Center
05:06PM 46.5433 -111.0831 96° East 474 545 36,900  Level Salt Lake Center
05:07PM 46.5283 -110.8906 96° East 480 552 36,900  Level Salt Lake Center
05:08PM 46.5133 -110.7006 96° East 479 551 36,900  Level Salt Lake Center
05:09PM 46.4958 -110.4856 97° East 477 549 37,000  Climbing Salt Lake Center
05:10PM 46.4800 -110.2931 97° East 479 551 37,000  Level Salt Lake Center
05:11PM 46.4639 -110.0994 97° East 484 557 37,000  Level Salt Lake Center
05:12PM 46.4464 -109.9053 97° East 486 559 37,000  Level Salt Lake Center
05:13PM 46.4278 -109.6703 96° East 488 562 37,000  Level Salt Lake Center
05:14PM 46.4108 -109.4756 97° East 488 562 37,000  Level Salt Lake Center
05:15PM 46.3925 -109.2831 98° East 485 558 37,000  Level Salt Lake Center
05:17PM 46.3744 -109.0886 98° East 488 562 37,000  Level Salt Lake Center
05:18PM 46.3558 -108.8944 98° East 487 560 37,000  Level Salt Lake Center
05:19PM 46.3367 -108.7006 98° East 487 560 37,000  Level Salt Lake Center
05:20PM 46.3183 -108.5100 98° East 481 554 37,000  Level Salt Lake Center
05:21PM 46.2942 -108.2814 99° East 481 554 37,000  Level Salt Lake Center
05:22PM 46.2744 -108.0872 98° East 486 559 37,000  Level Salt Lake Center
05:23PM 46.2542 -107.8939 99° East 488 562 37,000  Level Salt Lake Center
05:24PM 46.2339 -107.7000 99° East 488 562 37,000  Level Salt Lake Center
05:25PM 46.2128 -107.5061 99° East 488 562 37,000  Level Salt Lake Center
05:26PM 46.1917 -107.3114 99° East 491 565 37,000  Level Salt Lake Center
05:27PM 46.1711 -107.1181 99° East 488 562 37,000  Level Salt Lake Center
05:28PM 46.1478 -106.9239 100° East 489 563 37,000  Level Salt Lake Center
05:29PM 46.1217 -106.6917 99° East 491 565 37,000  Level Salt Lake Center
05:30PM 46.0978 -106.4958 100° East 493 567 37,000  Level Salt Lake Center
05:31PM 46.0733 -106.3008 100° East 494 568 37,000  Level Salt Lake Center
05:32PM 46.0500 -106.1069 100° East 493 567 37,000  Level Salt Lake Center
05:33PM 46.0264 -105.9128 100° East 494 568 37,000  Level Salt Lake Center
05:34PM 46.0025 -105.7189 100° East 493 567 37,000  Level Salt Lake Center
05:35PM 45.9728 -105.4889 100° East 491 565 37,000  Level Salt Lake Center
05:36PM 45.9478 -105.2972 101° East 488 562 37,000  Level Salt Lake Center
05:37PM 45.9247 -105.1086 100° East 485 558 37,000  Level Salt Lake Center
05:38PM 45.9006 -104.9186 100° East 483 556 37,000  Level Salt Lake Center
05:39PM 45.8758 -104.7303 101° East 482 555 37,000  Level Salt Lake Center
05:40PM 45.8503 -104.5392 101° East 487 560 37,000 -60 Level Salt Lake Center
05:41PM 45.8197 -104.3275 102° East 486 559 36,900 -60 Descending Salt Lake Center
05:42PM 45.7936 -104.1347 101° East 492 566 36,900  Level Salt Lake Center
05:43PM 45.7667 -103.9436 101° East 493 567 36,900  Level Salt Lake Center
05:44PM 45.7392 -103.7517 102° East 494 568 36,900  Level Salt Lake Center
05:45PM 45.7111 -103.5622 102° East 492 566 36,900  Level Salt Lake Center
05:46PM 45.6781 -103.3350 102° East 491 565 36,900  Level Salt Lake Center
05:47PM 45.6497 -103.1392 102° East 499 574 36,900  Level Salt Lake Center
05:48PM 45.6217 -102.9503 102° East 496 571 36,900  Level Salt Lake Center
05:50PM 45.5928 -102.7603 102° East 493 567 36,900  Level Salt Lake Center
05:51PM 45.5625 -102.5706 103° East 493 567 36,900  Level Salt Lake Center
05:52PM 45.5331 -102.3797 102° East 493 567 36,900  Level Salt Lake Center
05:53PM 45.4983 -102.1500 102° East 495 570 36,900  Level Salt Lake Center
05:54PM 45.4561 -101.9289 105° East 494 568 37,000  Climbing Minneapolis Center
05:55PM 45.4294 -101.7397 101° East 491 565 37,000  Level Minneapolis Center
05:56PM 45.3978 -101.5503 103° East 491 565 37,000  Level Minneapolis Center
05:57PM 45.3669 -101.3606 103° East 493 567 37,000  Level Minneapolis Center
05:58PM 45.3356 -101.1719 103° East 491 565 37,000  Level Minneapolis Center
05:59PM 45.2986 -100.9425 103° East 496 571 37,000  Level Minneapolis Center
06:00PM 45.2653 -100.7544 104° East 493 567 37,000  Level Minneapolis Center
06:01PM 45.2328 -100.5672 104° East 490 564 37,000  Level Minneapolis Center
06:02PM 45.1992 -100.3783 104° East 493 567 37,000  Level Minneapolis Center
06:03PM 45.1650 -100.1892 104° East 494 568 37,000  Level Minneapolis Center
06:04PM 45.1244 -99.9669 104° East 495 570 37,000  Level Minneapolis Center
06:05PM 45.0969 -99.7947 103° East 496 571 37,000  Level Minneapolis Center
06:06PM 45.0544 -99.5683 105° East 493 567 37,000  Level Minneapolis Center
06:07PM 45.0189 -99.3781 105° East 496 571 37,000  Level Minneapolis Center
06:08PM 44.9836 -99.1900 105° East 496 571 37,000  Level Minneapolis Center
06:09PM 44.9481 -99.0000 105° East 498 573 37,000  Level Minneapolis Center
06:10PM 44.9122 -98.8114 105° East 499 574 37,000  Level Minneapolis Center
06:11PM 44.8758 -98.6222 105° East 500 575 37,000  Level Minneapolis Center
06:12PM 44.8397 -98.4322 105° East 502 578 37,000  Level Minneapolis Center
06:14PM 44.7975 -98.2303 106° East 501 577 37,000  Level Minneapolis Center
06:15PM 44.7450 -98.0494 112° Southeast 500 575 37,000  Level Minneapolis Center
06:16PM 44.6944 -97.8689 111° Southeast 498 573 37,000  Level Minneapolis Center
06:17PM 44.6336 -97.6525 111° Southeast 497 572 37,000  Level Minneapolis Center
06:18PM 44.5833 -97.4728 111° Southeast 496 571 37,000  Level Minneapolis Center
06:19PM 44.5319 -97.2933 112° Southeast 497 572 37,000  Level Minneapolis Center
06:20PM 44.4794 -97.1147 112° Southeast 498 573 37,000  Level Minneapolis Center
06:21PM 44.4281 -96.9347 112° Southeast 499 574 37,000  Level Minneapolis Center
06:22PM 44.3775 -96.7567 112° Southeast 495 570 37,000  Level Minneapolis Center
06:23PM 44.3144 -96.5411 112° Southeast 499 574 37,000  Level Minneapolis Center
06:24PM 44.2622 -96.3625 112° Southeast 499 574 37,000  Level Minneapolis Center
06:25PM 44.2111 -96.1906 112° Southeast 499 574 37,000  Level Minneapolis Center
06:26PM 44.1508 -95.9878 112° Southeast 501 577 37,000  Level Minneapolis Center
06:27PM 44.0989 -95.8094 112° Southeast 500 575 37,000  Level Minneapolis Center
06:28PM 44.0447 -95.6308 113° Southeast 501 577 37,000  Level Minneapolis Center
06:29PM 43.9903 -95.4544 113° Southeast 500 575 37,000  Level Minneapolis Center
06:30PM 43.9353 -95.2739 113° Southeast 507 583 37,000  Level Minneapolis Center
06:31PM 43.8789 -95.0981 114° Southeast 503 579 37,000  Level Minneapolis Center
06:32PM 43.8147 -94.8869 113° Southeast 499 574 37,000  Level Minneapolis Center
06:33PM 43.7592 -94.7100 113° Southeast 501 577 37,000  Level Minneapolis Center
06:34PM 43.7031 -94.5339 114° Southeast 502 578 37,000  Level Minneapolis Center
06:35PM 43.6461 -94.3583 114° Southeast 502 578 37,000  Level Minneapolis Center
06:36PM 43.5883 -94.1756 114° Southeast 502 578 37,000  Level Minneapolis Center
06:37PM 43.5269 -93.9847 114° Southeast 504 580 37,000  Level Minneapolis Center
06:38PM 43.4706 -93.8092 114° Southeast 505 581 37,000  Level Minneapolis Center
06:39PM 43.4133 -93.6358 114° Southeast 504 580 37,000  Level Minneapolis Center
06:40PM 43.3564 -93.4639 114° Southeast 499 574 37,000 -300 Level Minneapolis Center
06:41PM 43.2997 -93.2908 114° Southeast 500 575 36,400 -1,260 Descending Minneapolis Center
06:42PM 43.2297 -93.0850 115° Southeast 501 577 34,400 -1,920 Descending Minneapolis Center
06:43PM 43.1733 -92.9119 114° Southeast 500 575 32,500 -2,400 Descending Minneapolis Center
06:45PM 43.1144 -92.7417 115° Southeast 500 575 29,500 -1,980 Descending Minneapolis Center
06:45PM 43.0667 -92.6042 115° Southeast 501 577 29,000 -300 Descending Chicago Center
06:46PM 43.0092 -92.4325 115° Southeast 501 577 29,000  Level Chicago Center
06:47PM 42.9475 -92.2575 116° Southeast 510 587 29,000  Level Chicago Center
06:48PM 42.8875 -92.0811 115° Southeast 516 594 29,000  Level Chicago Center
06:49PM 42.8147 -91.8717 115° Southeast 515 593 29,000  Level Chicago Center
06:50PM 42.7519 -91.6925 115° Southeast 515 593 29,000 -300 Level Chicago Center
06:51PM 42.6853 -91.5000 115° Southeast 520 598 28,500 -1,260 Descending Chicago Center
06:53PM 42.6247 -91.3308 116° Southeast 509 586 26,400 -2,040 Descending Chicago Center
06:54PM 42.5642 -91.1611 116° Southeast 507 583 24,300 -1,440 Descending Chicago Center
06:55PM 42.5017 -90.9906 116° Southeast 508 585 23,500 -840 Descending Chicago Center
06:56PM 42.4400 -90.8181 116° Southeast 513 590 22,600 -1,020 Descending Chicago Center
06:57PM 42.3864 -90.6067 109° East 509 586 21,500 -960 Descending Chicago Center
06:58PM 42.3672 -90.4244 98° East 499 574 20,600 -1,440 Descending Chicago Center
06:59PM 42.3472 -90.2478 99° East 486 559 18,500 -2,220 Descending Chicago Center
07:00PM 42.3281 -90.0736 98° East 476 548 16,100 -2,520 Descending Chicago Center
07:01PM 42.3058 -89.8806 99° East 454 522 13,300 -1,560 Descending Chicago Center
07:02PM 42.2878 -89.7192 99° East 440 506 12,900 -540 Descending Chicago Center
07:03PM 42.2681 -89.5600 99° East 432 497 12,200 -1,140 Descending Chicago Center
07:04PM 42.2481 -89.4042 100° East 425 489 10,600 -1,080 Descending Chicago Center
07:05PM 42.2303 -89.2492 99° East 419 482 10,000 -300 Descending Chicago Center
07:06PM 42.2514 -89.0694 81° East 416 479 10,000  Level Chicago Center
07:07PM 42.2814 -88.9308 74° East 396 456 10,000 -360 Level Chicago Center
07:08PM 42.3075 -88.8133 73° East 321 369 9,300 -1,380 Descending Chicago Center
07:09PM 42.3308 -88.7017 74° East 308 354 7,200 -1,980 Descending Chicago Center
07:10PM 42.3525 -88.5975 74° East 309 356 5,300 -1,260 Descending Chicago Center
07:11PM 42.3653 -88.4689 82° East 295 339 4,600 -660 Descending Chicago Center
07:12PM 42.3594 -88.3583 94° East 293 337 4,000 -300 Descending Chicago Center
07:13PM 42.3533 -88.2503 94° East 293 337 4,000 -240 Level Chicago Center
07:14PM 42.3378 -88.1422 101° East 297 342 3,500 -480 Descending Chicago Center
07:15PM 42.3233 -88.0322 100° East 286 329 3,100 -480 Descending Chicago Center
07:16PM 42.2711 -87.9825 145° Southeast 254 292 2,600 -540 Descending Chicago Center
07:17PM 42.2183 -87.9583 161° South 225 259 2,100 -360 Descending Chicago Center
07:18PM 42.1750 -87.9311 155° Southeast 197 227 1,900 -240 Descending Chicago Center